Terminal Aerodrome Forecast
Issued by NWS Shreveport, LA

Home | Current Version | Previous Version | Text Only | Print | Product List | Glossary On
Versions: 1 2 3 4 5 6 7 8 9 10 11 12 13 14
000
FTUS44 KSHV 280000 RRA
TAFTXK
TAF
KTXK 280007Z 2800/2824 36008KT P6SM FEW007 BKN015 OVC020
      TEMPO 2800/2803 4SM -SHRA BR OVC008
     FM280300 34013G16KT 3SM -RA BR OVC007
     FM280600 33008KT P6SM OVC015
     FM280900 34006KT 1 1/2SM -RA BR OVC004
     FM281500 35004KT 4SM BR OVC015
     FM281800 34004KT P6SM OVC015=

USA.gov is the U.S. government's official web portal to all federal, state and local government web resources and services.